createdAt,value
2022-11-01T00:03:06.769Z,100315.56
2022-11-01T00:08:07.750Z,100325.13
2022-11-01T00:13:08.551Z,100317.34
2022-11-01T00:18:10.688Z,100322.31
2022-11-01T00:23:11.614Z,100325.75
2022-11-01T00:28:12.882Z,100325.75
2022-11-01T00:33:15.021Z,100318.81
2022-11-01T00:38:16.749Z,100318.59
2022-11-01T00:48:24.602Z,100314.28
2022-11-01T00:53:25.371Z,100316.06
2022-11-01T00:58:26.154Z,100300.38
2022-11-01T01:03:28.471Z,100299.59
2022-11-01T01:08:29.530Z,100298.53
2022-11-01T01:13:30.353Z,100284.66
2022-11-01T01:18:32.528Z,100289.88
2022-11-01T01:23:33.667Z,100286.44
2022-11-01T01:28:35.914Z,100277.84
2022-11-01T01:33:40.020Z,100268.03
2022-11-01T01:38:40.830Z,100268.75
2022-11-01T01:43:42.550Z,100265.72
2022-11-01T01:48:48.474Z,100254.88
2022-11-01T01:53:53.579Z,100253.06
2022-11-01T01:58:57.945Z,100246.00
2022-11-01T02:04:00.399Z,100247.47
2022-11-01T02:09:03.750Z,100249.13
2022-11-01T02:14:04.854Z,100256.25
2022-11-01T02:19:37.209Z,100270.47
2022-11-01T02:25:00.062Z,100272.81
2022-11-01T02:30:27.854Z,100262.47
2022-11-01T02:35:42.661Z,100260.91
2022-11-01T02:40:51.182Z,100261.84
2022-11-01T02:45:52.610Z,100258.50
2022-11-01T02:50:57.814Z,100249.91
2022-11-01T02:55:58.615Z,100258.84
2022-11-01T03:00:59.535Z,100260.69
2022-11-01T03:06:10.582Z,100260.88
2022-11-01T03:11:13.424Z,100266.22
2022-11-01T03:16:20.967Z,100260.09
2022-11-01T03:21:26.193Z,100266.31
2022-11-01T03:26:32.393Z,100263.78
2022-11-01T03:31:37.407Z,100257.81
2022-11-01T03:36:43.825Z,100268.25
2022-11-01T03:41:49.135Z,100270.03
2022-11-01T03:46:50.910Z,100269.13
2022-11-01T03:51:53.086Z,100279.56
2022-11-01T03:56:54.233Z,100287.59
2022-11-01T04:01:55.130Z,100310.13
2022-11-01T04:06:57.444Z,100299.84
2022-11-01T04:11:58.309Z,100309.69
2022-11-01T04:17:16.631Z,100305.63
2022-11-01T04:22:22.073Z,100325.75
2022-11-01T04:27:25.308Z,100327.66
2022-11-01T04:32:26.111Z,100327.66
2022-11-01T04:37:28.280Z,100314.88
2022-11-01T04:42:29.073Z,100317.41
2022-11-01T04:47:29.864Z,100312.25
2022-11-01T04:52:32.062Z,100314.75
2022-11-01T04:57:32.833Z,100319.97
2022-11-01T05:02:33.676Z,100301.09
2022-11-01T05:07:36.395Z,100307.34
2022-11-01T05:12:37.725Z,100295.47
2022-11-01T05:17:42.411Z,100286.06
2022-11-01T05:22:44.601Z,100299.34
2022-11-01T05:27:45.439Z,100289.06
2022-11-01T05:32:46.198Z,100299.75
2022-11-01T05:37:48.340Z,100292.19
2022-11-01T05:42:49.350Z,100294.16
2022-11-01T05:47:50.206Z,100295.19
2022-11-01T05:52:52.373Z,100291.63
2022-11-01T05:57:58.983Z,100297.75
2022-11-01T06:03:00.734Z,100299.50
2022-11-01T06:08:04.316Z,100306.47
2022-11-01T06:13:05.409Z,100308.28
2022-11-01T06:18:07.072Z,100308.94
2022-11-01T06:23:12.133Z,100316.81
2022-11-01T06:28:13.064Z,100316.66
2022-11-01T06:33:13.915Z,100331.28
2022-11-01T06:38:16.296Z,100335.44
2022-11-01T06:43:17.073Z,100346.72
2022-11-01T06:48:17.907Z,100353.44
2022-11-01T06:53:20.175Z,100351.38
2022-11-01T06:58:21.296Z,100354.75
2022-11-01T07:03:22.163Z,100375.44
2022-11-01T07:08:24.483Z,100380.28
2022-11-01T07:13:27.147Z,100385.16
2022-11-01T07:18:29.909Z,100390.66
2022-11-01T07:23:32.203Z,100392.06
2022-11-01T07:28:33.130Z,100394.44
2022-11-01T07:33:34.140Z,100402.91
2022-11-01T07:38:37.548Z,100396.56
2022-11-01T07:43:38.683Z,100406.91
2022-11-01T07:48:39.636Z,100407.00
2022-11-01T07:53:41.804Z,100407.72
2022-11-01T07:58:43.655Z,100410.88
2022-11-01T08:03:44.527Z,100413.16
2022-11-01T08:08:47.026Z,100411.59
2022-11-01T08:13:47.793Z,100413.16
2022-11-01T08:18:54.474Z,100417.53
2022-11-01T08:23:56.684Z,100416.44
2022-11-01T08:28:58.802Z,100401.59
2022-11-01T08:34:00.033Z,100405.06
2022-11-01T08:39:02.301Z,100430.28
2022-11-01T08:44:03.248Z,100432.06
2022-11-01T08:49:04.169Z,100449.25
2022-11-01T08:54:07.787Z,100450.84
2022-11-01T08:59:08.934Z,100465.91
2022-11-01T09:04:09.771Z,100463.56
2022-11-01T09:09:11.940Z,100466.13
2022-11-01T09:14:12.774Z,100468.47
2022-11-01T09:19:13.604Z,100470.53
2022-11-01T09:24:17.575Z,100465.66
2022-11-01T09:29:20.874Z,100465.06
2022-11-01T09:34:21.831Z,100461.28
2022-11-01T09:39:24.082Z,100457.66
2022-11-01T09:44:28.914Z,100467.81
2022-11-01T09:49:33.059Z,100462.84
2022-11-01T09:54:35.343Z,100465.16
2022-11-01T09:59:42.381Z,100467.66
2022-11-01T10:05:00.774Z,100486.03
2022-11-01T10:10:12.040Z,100485.47
2022-11-01T10:15:37.494Z,100486.84
2022-11-01T10:20:40.106Z,100475.72
2022-11-01T10:25:48.931Z,100479.81
2022-11-01T10:30:55.532Z,100498.63
2022-11-01T10:36:00.202Z,100496.84
2022-11-01T10:41:12.204Z,100486.06
2022-11-01T10:46:19.008Z,100504.59
2022-11-01T10:51:27.710Z,100504.53
2022-11-01T10:56:35.012Z,100491.06
2022-11-01T11:01:45.888Z,100495.81
2022-11-01T11:06:47.334Z,100484.13
2022-11-01T11:11:50.841Z,100485.97
2022-11-01T11:16:55.649Z,100487.28
2022-11-01T11:21:57.916Z,100474.66
2022-11-01T11:27:02.330Z,100482.66
2022-11-01T11:32:05.014Z,100492.84
2022-11-01T11:37:08.631Z,100501.63
2022-11-01T11:42:16.680Z,100502.88
2022-11-01T11:47:20.638Z,100504.25
2022-11-01T11:52:28.359Z,100500.75
2022-11-01T11:57:30.898Z,100498.44
2022-11-01T12:02:35.678Z,100504.59
2022-11-01T12:07:45.701Z,100508.47
2022-11-01T12:12:53.870Z,100507.41
2022-11-01T12:17:55.232Z,100509.13
2022-11-01T12:23:07.077Z,100508.22
2022-11-01T12:28:20.646Z,100500.38
2022-11-01T12:33:26.432Z,100505.44
2022-11-01T12:38:44.816Z,100511.38
2022-11-01T12:44:03.646Z,100515.84
2022-11-01T12:49:12.511Z,100512.59
2022-11-01T12:54:16.607Z,100512.13
2022-11-01T12:59:25.041Z,100526.19
2022-11-01T13:04:31.897Z,100517.06
2022-11-01T13:09:43.062Z,100520.19
2022-11-01T13:14:58.171Z,100527.91
2022-11-01T13:20:15.603Z,100538.47
2022-11-01T13:25:24.669Z,100540.47
2022-11-01T13:30:27.407Z,100556.09
2022-11-01T13:35:43.783Z,100562.22
2022-11-01T13:40:52.776Z,100566.72
2022-11-01T13:46:26.990Z,100575.78
2022-11-01T13:51:39.589Z,100573.44
2022-11-01T13:56:43.946Z,100576.25
2022-11-01T14:01:46.357Z,100576.31
2022-11-01T14:07:05.268Z,100578.94
2022-11-01T14:12:28.265Z,100585.59
2022-11-01T14:18:08.358Z,100591.03
2022-11-01T14:23:52.556Z,100583.22
2022-11-01T14:28:56.969Z,100577.69
2022-11-01T14:34:02.887Z,100580.38
2022-11-01T14:39:11.652Z,100581.97
2022-11-01T14:44:18.782Z,100589.50
2022-11-01T14:49:29.828Z,100588.69
2022-11-01T14:54:39.850Z,100579.34
2022-11-01T14:59:40.746Z,100589.25
2022-11-01T15:04:44.931Z,100591.56
2022-11-01T15:09:56.732Z,100588.88
2022-11-01T15:14:59.197Z,100591.00
2022-11-01T15:20:04.490Z,100603.56
2022-11-01T15:25:07.067Z,100603.69
2022-11-01T15:30:21.720Z,100598.66
2022-11-01T15:35:27.008Z,100601.47
2022-11-01T15:40:30.782Z,100602.81
2022-11-01T15:45:33.621Z,100611.47
2022-11-01T15:50:38.407Z,100603.59
2022-11-01T15:55:45.689Z,100605.59
2022-11-01T16:00:50.814Z,100605.13
2022-11-01T16:05:58.624Z,100615.97
2022-11-01T16:11:01.442Z,100602.28
2022-11-01T16:16:20.198Z,100624.13
2022-11-01T16:21:40.217Z,100624.59
2022-11-01T16:26:53.761Z,100626.47
2022-11-01T16:32:09.865Z,100626.13
2022-11-01T16:37:20.836Z,100642.94
2022-11-01T16:42:22.865Z,100652.13
2022-11-01T16:47:24.889Z,100655.13
2022-11-01T16:52:27.071Z,100666.56
2022-11-01T16:57:29.999Z,100670.97
2022-11-01T17:02:31.579Z,100664.28
2022-11-01T17:07:34.210Z,100674.19
2022-11-01T17:12:36.150Z,100681.13
2022-11-01T17:23:10.012Z,100693.59
2022-11-01T17:28:10.908Z,100704.09
2022-11-01T17:33:11.787Z,100692.00
2022-11-01T17:38:18.446Z,100702.59
2022-11-01T17:43:19.939Z,100706.19
2022-11-01T17:48:20.768Z,100711.44
2022-11-01T17:53:23.158Z,100701.25
2022-11-01T17:58:24.175Z,100700.41
2022-11-01T18:03:25.657Z,100704.97
2022-11-01T18:08:31.880Z,100701.50
2022-11-01T18:13:41.298Z,100706.75
2022-11-01T18:19:14.403Z,100699.25
2022-11-01T18:24:22.600Z,100706.16
2022-11-01T18:29:24.037Z,100695.88
2022-11-01T18:34:35.558Z,100701.09
2022-11-01T18:39:43.121Z,100705.63
2022-11-01T18:44:44.952Z,100715.13
2022-11-01T18:49:46.928Z,100710.78
2022-11-01T18:54:56.332Z,100714.31
2022-11-01T18:59:58.832Z,100708.41
2022-11-01T19:05:11.601Z,100723.97
2022-11-01T19:10:20.066Z,100719.88
2022-11-01T19:15:24.788Z,100724.16
2022-11-01T19:20:28.842Z,100725.09
2022-11-01T19:25:33.054Z,100727.75
2022-11-01T19:30:34.663Z,100744.19
2022-11-01T19:35:35.556Z,100751.22
2022-11-01T19:40:38.063Z,100754.63
2022-11-01T19:45:45.033Z,100752.34
2022-11-01T19:50:47.138Z,100755.09
2022-11-01T19:55:53.060Z,100753.50
2022-11-01T20:01:13.951Z,100762.34
2022-11-01T20:06:16.948Z,100775.47
2022-11-01T20:11:19.249Z,100772.00
2022-11-01T20:16:20.090Z,100779.97
2022-11-01T20:21:21.337Z,100769.69
2022-11-01T20:26:23.657Z,100780.19
2022-11-01T20:31:25.834Z,100802.03
2022-11-01T20:36:27.007Z,100802.09
2022-11-01T20:41:29.627Z,100803.81
2022-11-01T20:46:30.522Z,100804.78
2022-11-01T20:51:31.343Z,100802.22
2022-11-01T20:56:33.573Z,100804.94
2022-11-01T21:01:34.516Z,100812.81
2022-11-01T21:06:38.761Z,100804.09
2022-11-01T21:11:44.598Z,100806.69
2022-11-01T21:16:45.491Z,100799.91
2022-11-01T21:21:49.666Z,100802.56
2022-11-01T21:26:55.877Z,100806.09
2022-11-01T21:31:57.795Z,100808.69
2022-11-01T21:37:00.018Z,100805.22
2022-11-01T21:42:07.521Z,100801.81
2022-11-01T21:47:20.108Z,100787.09
2022-11-01T21:52:21.428Z,100789.84
2022-11-01T21:57:23.634Z,100790.63
2022-11-01T22:02:24.501Z,100794.16
2022-11-01T22:07:25.573Z,100788.16
2022-11-01T22:12:27.968Z,100789.06
2022-11-01T22:17:28.727Z,100795.25
2022-11-01T22:22:29.681Z,100796.94
2022-11-01T22:27:31.836Z,100803.94
2022-11-01T22:32:32.628Z,100806.56
2022-11-01T22:37:36.226Z,100807.44
2022-11-01T22:42:38.354Z,100804.84
2022-11-01T22:47:39.185Z,100801.41
2022-11-01T22:52:43.930Z,100815.25
2022-11-01T22:57:48.627Z,100815.25
2022-11-01T23:02:49.580Z,100819.59
2022-11-01T23:07:52.065Z,100817.00
2022-11-01T23:13:16.925Z,100813.56
2022-11-01T23:18:22.298Z,100825.72
2022-11-01T23:23:23.593Z,100823.97
2022-11-01T23:28:25.809Z,100836.13
2022-11-01T23:33:33.760Z,100830.06
2022-11-01T23:38:39.418Z,100833.56
2022-11-01T23:43:42.387Z,100831.81
2022-11-01T23:48:44.510Z,100837.88
2022-11-01T23:53:47.515Z,100838.78
2022-11-01T23:58:55.302Z,100836.19
